Time;durP1;ratioP1;P1;durP2;ratioP2;P2;SDS_P1;SDS_P2;PMS_P1;PMS_P2;Temp;Humidity;BMP_temperature;BMP_pressure;BME280_temperature;BME280_humidity;BME280_pressure;Samples;Min_cycle;Max_cycle;Signal;HPM_P1;HPM_P2
2023/12/29 00:01:17;;;;;;;15.43;2.90;;;;;;;-146.27;95.63;32878.72;5068115;28;20376;-72
2023/12/29 00:03:42;;;;;;;15.77;2.50;;;;;;;-146.27;93.95;32799.34;5065360;28;20033;-71
2023/12/29 00:06:08;;;;;;;10.27;2.60;;;;;;;-146.27;94.36;32747.78;5067638;28;20024;-72
2023/12/29 00:08:33;;;;;;;18.30;3.38;;;;;;;-146.27;94.27;32696.19;5063231;28;20163;-72
2023/12/29 00:10:59;;;;;;;18.85;2.38;;;;;;;-146.27;93.60;32769.59;5067681;28;20060;-72
2023/12/29 00:13:25;;;;;;;17.77;2.88;;;;;;;-146.27;94.09;32743.81;5067548;28;20039;-71
2023/12/29 00:15:54;;;;;;;17.98;2.50;;;;;;;-146.27;93.89;32829.09;5077399;28;20054;-72
2023/12/29 00:18:20;;;;;;;12.52;2.70;;;;;;;-146.27;94.00;32862.84;5069663;28;20036;-72
2023/12/29 00:20:45;;;;;;;16.10;2.25;;;;;;;-146.27;93.72;32811.25;5068353;28;20125;-72
2023/12/29 00:23:11;;;;;;;24.30;2.45;;;;;;;-146.27;93.30;32791.41;5080969;28;20130;-71
2023/12/29 00:25:36;;;;;;;13.93;2.22;;;;;;;-146.27;92.71;32793.41;5071739;28;20047;-71
2023/12/29 00:28:03;;;;;;;15.10;2.30;;;;;;;-146.27;92.47;32771.56;5069674;28;20449;-71
2023/12/29 00:30:29;;;;;;;21.30;2.92;;;;;;;-146.27;91.81;32642.63;5072461;28;20025;-71
2023/12/29 00:32:55;;;;;;;17.65;2.90;;;;;;;-146.27;91.50;32672.38;5070952;28;20042;-71
2023/12/29 00:35:20;;;;;;;16.70;2.35;;;;;;;-146.27;90.99;32670.41;5080717;28;20107;-71
2023/12/29 00:37:46;;;;;;;18.50;3.17;;;;;;;-146.27;92.02;32777.53;5076622;28;20116;-71
2023/12/29 00:40:11;;;;;;;11.02;2.00;;;;;;;-146.27;91.11;32678.34;5070471;28;20020;-71
2023/12/29 00:42:37;;;;;;;19.63;2.63;;;;;;;-146.27;90.50;32622.78;5068374;28;20032;-71
2023/12/29 00:45:03;;;;;;;13.05;2.45;;;;;;;-146.27;90.64;32652.53;5073528;28;20146;-71
2023/12/29 00:47:28;;;;;;;14.35;2.53;;;;;;;-146.27;89.61;32529.56;5068376;28;20043;-71
2023/12/29 00:49:54;;;;;;;16.33;2.42;;;;;;;-146.27;90.65;32612.88;5061507;28;20063;-71
2023/12/29 00:52:19;;;;;;;13.32;2.78;;;;;;;-146.27;90.32;32589.06;5064450;28;20025;-71
2023/12/29 00:54:44;;;;;;;16.25;3.15;;;;;;;-146.27;89.50;32505.75;5071461;28;20078;-71
2023/12/29 00:57:11;;;;;;;13.73;2.60;;;;;;;-146.27;90.19;32579.16;5071657;28;20057;-71
2023/12/29 00:59:41;;;;;;;20.58;2.72;;;;;;;-146.27;90.99;32684.28;5061368;28;20598;-72
2023/12/29 01:02:07;;;;;;;11.88;2.58;;;;;;;-146.27;90.60;32628.75;5062213;28;20024;-71
2023/12/29 01:04:33;;;;;;;15.38;3.10;;;;;;;-146.27;90.72;32640.66;5069074;28;20111;-71
2023/12/29 01:06:59;;;;;;;19.73;2.78;;;;;;;-146.27;90.66;32622.78;5070793;28;20025;-71
2023/12/29 01:09:24;;;;;;;20.45;2.80;;;;;;;-146.27;90.15;32640.66;5062863;28;20111;-70
2023/12/29 01:11:49;;;;;;;16.80;2.55;;;;;;;-146.27;89.97;32565.25;5080161;28;20037;-71
2023/12/29 01:14:15;;;;;;;12.18;2.22;;;;;;;-146.27;90.18;32585.09;5067727;28;20136;-71
2023/12/29 01:16:41;;;;;;;11.32;2.38;;;;;;;-146.27;89.73;32618.81;5071072;28;20610;-71
2023/12/29 01:19:07;;;;;;;20.25;2.83;;;;;;;-146.27;89.72;32521.63;5067302;28;20024;-70
2023/12/29 01:21:33;;;;;;;16.58;2.53;;;;;;;-146.27;89.75;32551.38;5073181;28;20044;-71
2023/12/29 01:24:00;;;;;;;17.08;2.65;;;;;;;-146.27;89.69;32608.91;5059838;28;20032;-71
2023/12/29 01:26:26;;;;;;;10.32;1.95;;;;;;;-146.27;89.01;32600.97;5065219;28;20029;-71
2023/12/29 01:28:51;;;;;;;17.75;2.25;;;;;;;-146.27;89.13;32563.28;5070861;28;20016;-71
2023/12/29 01:31:17;;;;;;;14.07;1.70;;;;;;;-146.27;88.64;32597.00;5079341;28;20692;-70
2023/12/29 01:33:43;;;;;;;14.63;2.40;;;;;;;-146.27;89.08;32670.41;5068512;28;20038;-73
2023/12/29 01:36:08;;;;;;;12.73;2.92;;;;;;;-146.27;89.56;32583.13;5071485;28;20024;-70
2023/12/29 01:38:33;;;;;;;14.73;2.75;;;;;;;-146.27;89.50;32595.03;5071138;28;20066;-71
2023/12/29 01:40:59;;;;;;;15.05;1.92;;;;;;;-146.27;89.10;32598.97;5077603;28;20024;-71
2023/12/29 01:43:24;;;;;;;20.27;3.92;;;;;;;-146.27;88.86;32525.59;5068816;28;20052;-70
2023/12/29 01:45:49;;;;;;;11.38;2.47;;;;;;;-146.27;89.53;32549.38;5075409;28;20043;-70
2023/12/29 01:48:15;;;;;;;10.65;2.38;;;;;;;-146.27;89.22;32577.16;5072521;28;20024;-71
2023/12/29 01:50:40;;;;;;;12.60;2.53;;;;;;;-146.27;89.29;32557.31;5070267;28;20388;-70
2023/12/29 01:53:06;;;;;;;15.57;3.05;;;;;;;-146.27;89.37;32545.44;5070804;28;20020;-71
2023/12/29 01:55:32;;;;;;;12.55;2.45;;;;;;;-146.27;90.51;32652.53;5068364;28;20163;-70
2023/12/29 01:57:58;;;;;;;15.38;2.70;;;;;;;-146.27;89.63;32583.13;5060659;28;20050;-71
2023/12/29 02:00:24;;;;;;;13.23;2.53;;;;;;;-146.27;89.51;32485.91;5056661;28;20159;-71
2023/12/29 02:02:49;;;;;;;17.73;3.28;;;;;;;-146.27;89.75;32595.03;5066562;28;20046;-71
2023/12/29 02:05:16;;;;;;;11.38;3.00;;;;;;;-146.27;89.94;32642.63;5063609;28;20036;-71
2023/12/29 02:07:42;;;;;;;16.30;2.88;;;;;;;-146.27;90.87;32676.34;5068791;28;20039;-71
2023/12/29 02:10:09;;;;;;;15.65;3.03;;;;;;;-146.27;89.99;32600.97;5055780;28;20376;-71
2023/12/29 02:12:36;;;;;;;20.63;3.83;;;;;;;-146.27;89.72;32589.06;5065508;28;20028;-70
2023/12/29 02:15:03;;;;;;;24.02;3.08;;;;;;;-146.27;89.71;32573.19;5075168;28;20107;-70
2023/12/29 02:17:39;;;;;;;16.55;2.70;;;;;;;-146.27;90.55;32668.41;5060004;28;20071;-70
2023/12/29 02:20:07;;;;;;;15.13;3.15;;;;;;;-146.27;90.03;32581.13;5069360;28;20064;-70
2023/12/29 02:22:32;;;;;;;13.85;2.95;;;;;;;-146.27;89.91;32585.09;5069684;28;20532;-70
2023/12/29 02:24:57;;;;;;;10.63;2.42;;;;;;;-146.27;89.13;32545.44;5066192;28;20107;-70
2023/12/29 02:27:43;;;;;;;16.20;3.00;;;;;;;-146.27;89.02;32483.94;5068565;28;20510;-70
2023/12/29 02:30:34;;;;;;;17.63;3.45;;;;;;;-146.27;88.89;32474.00;5072167;28;20075;-71
2023/12/29 02:33:02;;;;;;;16.42;2.90;;;;;;;-146.27;89.83;32551.38;5069471;28;20376;-71
2023/12/29 02:35:32;;;;;;;22.55;3.15;;;;;;;-146.27;89.66;32563.28;5069207;28;20054;-71
2023/12/29 02:37:58;;;;;;;10.10;2.22;;;;;;;-146.27;88.59;32466.06;5061252;28;20052;-71
2023/12/29 02:40:25;;;;;;;15.85;2.58;;;;;;;-146.27;88.36;32468.06;5058101;28;20039;-71
2023/12/29 02:42:50;;;;;;;16.90;2.83;;;;;;;-146.27;88.50;32493.84;5069372;28;20024;-71
2023/12/29 02:45:17;;;;;;;15.65;2.63;;;;;;;-146.27;88.31;32503.75;5073672;28;20033;-70
2023/12/29 02:47:43;;;;;;;32.33;3.78;;;;;;;-146.27;88.95;32509.72;5065954;28;20059;-70
2023/12/29 02:50:09;;;;;;;27.05;3.53;;;;;;;-146.27;88.41;32426.41;5057978;28;20108;-71
2023/12/29 02:52:34;;;;;;;20.75;3.10;;;;;;;-146.27;88.71;32452.19;5054908;28;20111;-71
2023/12/29 02:54:59;;;;;;;21.05;3.25;;;;;;;-146.27;89.13;32589.06;5062463;28;20136;-71
2023/12/29 02:57:25;;;;;;;24.02;3.38;;;;;;;-146.27;87.85;32402.59;5061276;28;20040;-71
2023/12/29 02:59:50;;;;;;;39.35;4.57;;;;;;;-146.27;88.02;32450.22;5064958;28;20023;-70
2023/12/29 03:02:16;;;;;;;33.17;4.65;;;;;;;-146.27;87.38;32485.91;5064682;28;20051;-70
2023/12/29 03:04:41;;;;;;;27.00;3.67;;;;;;;-146.27;86.67;32448.22;5064427;28;20016;-70
2023/12/29 03:07:07;;;;;;;34.20;5.15;;;;;;;-146.27;86.27;32307.38;5071354;28;20074;-71
2023/12/29 03:09:32;;;;;;;32.85;3.83;;;;;;;-146.27;85.74;32293.50;5064803;28;20024;-71
2023/12/29 03:11:58;;;;;;;34.17;4.03;;;;;;;-146.27;85.64;32315.31;5066555;28;20658;-71
2023/12/29 03:14:23;;;;;;;34.10;5.70;;;;;;;-146.27;86.72;32458.13;5068178;28;20043;-70
2023/12/29 03:16:48;;;;;;;27.25;5.05;;;;;;;-146.27;86.23;32382.75;5062222;28;20035;-70
2023/12/29 03:19:14;;;;;;;37.10;4.50;;;;;;;-146.27;85.39;32454.16;5066438;28;20029;-70
2023/12/29 03:21:39;;;;;;;32.90;4.20;;;;;;;-146.27;84.04;32347.06;5070269;28;20047;-70
2023/12/29 03:24:05;;;;;;;26.30;4.75;;;;;;;-146.27;82.77;32456.16;5067570;28;20032;-71
2023/12/29 03:26:30;;;;;;;24.98;4.13;;;;;;;-146.27;82.35;32477.97;5073451;28;20032;-70
2023/12/29 03:28:55;;;;;;;29.40;3.90;;;;;;;-146.27;80.45;32297.47;5067313;28;20024;-70
2023/12/29 03:31:21;;;;;;;31.02;4.60;;;;;;;-146.27;80.10;32234.00;5062097;28;20024;-72
2023/12/29 03:33:46;;;;;;;32.67;4.75;;;;;;;-146.27;79.75;32253.81;5061139;28;20016;-71
2023/12/29 03:36:12;;;;;;;28.50;4.18;;;;;;;-146.27;79.63;32239.94;5071744;28;20102;-70
2023/12/29 03:38:37;;;;;;;22.15;3.70;;;;;;;-146.27;82.82;32428.38;5069273;28;20028;-70
2023/12/29 03:41:03;;;;;;;31.40;4.80;;;;;;;-146.27;84.17;32436.31;5065991;28;20023;-68
2023/12/29 03:43:29;;;;;;;36.42;5.13;;;;;;;-146.27;86.16;32462.09;5066319;28;20025;-70
2023/12/29 03:45:54;;;;;;;27.67;3.58;;;;;;;-146.27;88.38;32624.78;5071803;28;20468;-70
2023/12/29 03:48:19;;;;;;;32.65;6.13;;;;;;;-146.27;89.73;32656.50;5075425;28;21256;-70
2023/12/29 03:50:45;;;;;;;34.95;4.55;;;;;;;-146.27;91.30;32624.78;5058603;28;20025;-71
2023/12/29 03:53:10;;;;;;;64.70;6.55;;;;;;;-146.27;90.50;32485.91;5066996;28;20364;-71
2023/12/29 03:55:37;;;;;;;47.75;5.78;;;;;;;-146.27;90.78;32597.00;5064987;28;20091;-71
2023/12/29 03:58:02;;;;;;;44.17;5.07;;;;;;;-146.27;91.04;32624.78;5069840;28;20665;-71
2023/12/29 04:00:28;;;;;;;42.08;5.85;;;;;;;-146.27;90.77;32573.19;5068313;28;20029;-70
2023/12/29 04:02:53;;;;;;;50.60;5.10;;;;;;;-146.27;89.83;32632.72;5065486;28;20699;-71
2023/12/29 04:05:19;;;;;;;34.83;5.43;;;;;;;-146.27;89.05;32624.78;5069886;28;20025;-70
2023/12/29 04:07:44;;;;;;;39.08;6.63;;;;;;;-146.27;87.81;32585.09;5082213;28;20107;-71
2023/12/29 04:10:10;;;;;;;41.08;5.40;;;;;;;-146.27;86.61;32458.13;5063999;28;20036;-71
2023/12/29 04:12:36;;;;;;;38.00;3.85;;;;;;;-146.27;85.59;32555.34;5070946;28;20115;-71
2023/12/29 04:15:03;;;;;;;26.60;4.40;;;;;;;-146.27;85.44;32446.25;5072911;28;20025;-71
2023/12/29 04:17:28;;;;;;;33.10;3.90;;;;;;;-146.27;85.29;32481.94;5073494;28;20029;-71
2023/12/29 04:19:54;;;;;;;43.75;5.43;;;;;;;-146.27;85.64;32533.53;5070385;28;20119;-71
2023/12/29 04:22:19;;;;;;;36.30;5.68;;;;;;;-146.27;85.42;32466.06;5070050;28;20107;-71
2023/12/29 04:24:44;;;;;;;26.27;3.92;;;;;;;-146.27;85.53;32541.47;5061633;28;20028;-70
2023/12/29 04:27:10;;;;;;;34.13;3.70;;;;;;;-146.27;85.92;32543.44;5071239;28;20399;-70
2023/12/29 04:29:36;;;;;;;45.75;5.68;;;;;;;-146.27;84.88;32438.31;5071853;28;20124;-71
2023/12/29 04:32:01;;;;;;;39.05;6.53;;;;;;;-146.27;84.50;32454.16;5071210;28;20020;-71
2023/12/29 04:34:26;;;;;;;31.75;4.38;;;;;;;-146.27;84.10;32412.50;5068659;28;20062;-70
2023/12/29 04:36:52;;;;;;;38.80;5.10;;;;;;;-146.27;83.50;32299.44;5070458;28;20039;-71
2023/12/29 04:39:17;;;;;;;25.25;5.07;;;;;;;-146.27;83.94;32533.53;5068886;28;20023;-70
2023/12/29 04:41:42;;;;;;;44.35;5.50;;;;;;;-146.27;83.37;32420.44;5069965;28;20063;-70
2023/12/29 04:44:08;;;;;;;34.08;4.28;;;;;;;-146.27;83.13;32422.44;5070111;28;20035;-70
2023/12/29 04:46:33;;;;;;;30.27;3.38;;;;;;;-146.27;82.66;32442.28;5075119;28;20036;-70
2023/12/29 04:48:59;;;;;;;42.17;4.70;;;;;;;-146.27;82.36;32351.03;5066524;28;20029;-71
2023/12/29 04:51:24;;;;;;;35.70;4.25;;;;;;;-146.27;82.30;32398.63;5069079;28;20048;-70
2023/12/29 04:53:50;;;;;;;22.95;3.42;;;;;;;-146.27;81.97;32323.25;5071914;28;20021;-71
2023/12/29 04:56:16;;;;;;;34.05;3.90;;;;;;;-146.27;82.83;32497.81;5073780;28;20056;-70
2023/12/29 04:58:41;;;;;;;34.83;5.70;;;;;;;-146.27;83.06;32493.84;5063450;28;20024;-71
2023/12/29 05:01:08;;;;;;;31.40;4.57;;;;;;;-146.27;81.69;32327.22;5069445;28;20131;-70
2023/12/29 05:03:33;;;;;;;34.42;4.15;;;;;;;-146.27;81.98;32372.84;5071389;28;20028;-71
2023/12/29 05:05:59;;;;;;;32.10;4.55;;;;;;;-146.27;82.54;32462.09;5072532;28;20534;-70
2023/12/29 05:08:24;;;;;;;34.30;5.47;;;;;;;-146.27;82.80;32327.22;5077855;28;20482;-71
2023/12/29 05:10:49;;;;;;;32.22;5.18;;;;;;;-146.27;83.98;32547.41;5055526;28;20113;-71
2023/12/29 05:13:15;;;;;;;23.83;5.15;;;;;;;-146.27;82.69;32384.75;5057791;28;20025;-70
2023/12/29 05:15:40;;;;;;;38.53;4.45;;;;;;;-146.27;82.94;32370.84;5068660;28;20021;-71
2023/12/29 05:18:06;;;;;;;39.03;3.67;;;;;;;-146.27;82.55;32311.34;5070710;28;20028;-71
2023/12/29 05:20:31;;;;;;;32.15;5.28;;;;;;;-146.27;82.27;32303.41;5064734;28;20534;-70
2023/12/29 05:22:56;;;;;;;38.00;5.70;;;;;;;-146.27;83.53;32380.78;5066669;28;20433;-71
2023/12/29 05:25:24;;;;;;;43.03;5.35;;;;;;;-146.27;83.35;32323.25;5066354;28;20030;-70
2023/12/29 05:27:49;;;;;;;31.13;4.60;;;;;;;-146.27;82.89;32293.50;5069074;28;20044;-70
2023/12/29 05:30:15;;;;;;;39.53;5.85;;;;;;;-146.27;83.53;32390.69;5071617;28;20040;-70
2023/12/29 05:32:41;;;;;;;25.05;4.20;;;;;;;-146.27;84.06;32446.25;5070190;28;20016;-71
2023/12/29 05:35:06;;;;;;;41.33;4.35;;;;;;;-146.27;83.58;32325.25;5072863;28;20480;-72
2023/12/29 05:37:32;;;;;;;24.95;3.42;;;;;;;-146.27;83.56;32347.06;5068576;28;20028;-71
2023/12/29 05:39:57;;;;;;;32.92;4.55;;;;;;;-146.27;85.10;32430.38;5067988;28;20031;-69
2023/12/29 05:42:22;;;;;;;30.95;4.30;;;;;;;-146.27;83.88;32321.28;5071550;28;20045;-70
2023/12/29 05:44:48;;;;;;;34.17;4.47;;;;;;;-146.27;84.07;32358.97;5069703;28;20024;-71
2023/12/29 05:47:13;;;;;;;36.60;5.28;;;;;;;-146.27;83.71;32319.28;5087679;28;20491;-71
2023/12/29 05:49:39;;;;;;;33.33;4.90;;;;;;;-146.27;84.32;32440.28;5070255;28;20104;-71
2023/12/29 05:52:07;;;;;;;38.28;4.30;;;;;;;-146.27;83.35;32335.16;5060761;28;20024;-71
2023/12/29 05:54:33;;;;;;;23.92;3.17;;;;;;;-146.27;83.21;32313.34;5069705;28;20115;-71
2023/12/29 05:56:59;;;;;;;29.13;2.97;;;;;;;-146.27;83.42;32406.56;5070272;28;20048;-71
2023/12/29 05:59:24;;;;;;;37.53;3.53;;;;;;;-146.27;83.25;32325.25;5061884;28;20025;-71
2023/12/29 06:01:50;;;;;;;27.73;3.55;;;;;;;-146.27;83.70;32418.47;5068291;28;20025;-70
2023/12/29 06:04:15;;;;;;;23.23;3.63;;;;;;;-146.27;82.74;32287.53;5052830;28;20029;-70
2023/12/29 06:06:43;;;;;;;21.88;3.53;;;;;;;-146.27;83.26;32410.53;5076164;28;20025;-71
2023/12/29 06:09:10;;;;;;;22.77;4.28;;;;;;;-146.27;83.35;32378.78;5070220;28;20077;-69
2023/12/29 06:11:36;;;;;;;23.38;3.25;;;;;;;-146.27;83.39;32422.44;5069403;28;20037;-71
2023/12/29 06:14:01;;;;;;;30.17;3.58;;;;;;;-146.27;83.54;32390.69;5063067;28;20041;-71
2023/12/29 06:16:27;;;;;;;25.25;3.55;;;;;;;-146.27;84.15;32420.44;5066615;28;20031;-71
2023/12/29 06:18:52;;;;;;;23.08;3.70;;;;;;;-146.27;84.18;32460.13;5057090;28;20059;-70
2023/12/29 06:21:19;;;;;;;17.50;2.58;;;;;;;-146.27;84.85;32460.13;5067317;28;20396;-71
2023/12/29 06:23:44;;;;;;;26.10;3.22;;;;;;;-146.27;85.24;32501.78;5064848;28;20028;-71
2023/12/29 06:26:17;;;;;;;23.33;3.17;;;;;;;-146.27;84.66;32436.31;5058219;28;20078;-71
2023/12/29 06:28:42;;;;;;;24.08;4.20;;;;;;;-146.27;84.92;32442.28;5060308;28;20020;-71
2023/12/29 06:31:08;;;;;;;26.45;3.25;;;;;;;-146.27;85.51;32466.06;5070219;28;20024;-70
2023/12/29 06:33:33;;;;;;;20.42;3.22;;;;;;;-146.27;84.15;32394.66;5069596;28;20036;-71
2023/12/29 06:35:59;;;;;;;15.00;3.70;;;;;;;-146.27;84.93;32418.47;5068164;28;20037;-71
2023/12/29 06:38:24;;;;;;;22.27;2.97;;;;;;;-146.27;84.51;32404.59;5069414;28;20035;-70
2023/12/29 06:40:49;;;;;;;17.50;2.78;;;;;;;-146.27;84.15;32351.03;5077549;28;20027;-71
2023/12/29 06:43:15;;;;;;;30.50;3.53;;;;;;;-146.27;84.71;32408.56;5065780;28;20112;-71
2023/12/29 06:45:40;;;;;;;26.23;2.95;;;;;;;-146.27;85.27;32444.25;5058502;28;20028;-71
2023/12/29 06:48:06;;;;;;;31.23;3.28;;;;;;;-146.27;86.29;32555.34;5065349;28;20028;-71
2023/12/29 06:50:31;;;;;;;20.27;2.92;;;;;;;-146.27;84.99;32315.31;5070686;28;20024;-71
2023/12/29 06:52:57;;;;;;;17.20;2.78;;;;;;;-146.27;85.03;32376.81;5079325;28;20110;-71
2023/12/29 06:55:23;;;;;;;17.33;2.67;;;;;;;-146.27;85.89;32432.34;5067594;28;20029;-71
2023/12/29 06:57:49;;;;;;;19.73;2.80;;;;;;;-146.27;85.76;32339.13;5059611;28;20016;-71
2023/12/29 07:00:15;;;;;;;14.93;2.10;;;;;;;-146.27;85.40;32394.66;5071365;28;20025;-71
2023/12/29 07:02:40;;;;;;;20.67;2.83;;;;;;;-146.27;86.26;32414.50;5066130;28;20489;-70
2023/12/29 07:05:06;;;;;;;16.98;2.65;;;;;;;-146.27;85.36;32303.41;5060804;28;20016;-71
2023/12/29 07:07:32;;;;;;;11.80;2.20;;;;;;;-146.27;86.16;32370.84;5064411;28;20714;-71
2023/12/29 07:09:57;;;;;;;17.00;2.13;;;;;;;-146.27;86.95;32481.94;5066816;28;20045;-70
2023/12/29 07:12:22;;;;;;;12.63;2.42;;;;;;;-146.27;84.88;32299.44;5062066;28;20028;-71
2023/12/29 07:14:48;;;;;;;16.20;2.22;;;;;;;-146.27;85.80;32349.03;5055596;28;20031;-72
2023/12/29 07:17:13;;;;;;;14.70;2.35;;;;;;;-146.27;85.72;32345.06;5068346;28;20085;-72
2023/12/29 07:19:38;;;;;;;14.75;2.20;;;;;;;-146.27;85.75;32390.69;5057847;28;20078;-71
2023/12/29 07:22:05;;;;;;;26.30;3.38;;;;;;;-146.27;85.76;32335.16;5067186;28;20108;-70
2023/12/29 07:24:32;;;;;;;18.98;3.00;;;;;;;-146.27;85.91;32277.63;5056623;28;20342;-70
2023/12/29 07:26:57;;;;;;;21.33;2.90;;;;;;;-146.27;86.52;32347.06;5062996;28;20039;-69
2023/12/29 07:29:22;;;;;;;16.88;2.50;;;;;;;-146.27;87.50;32458.13;5062273;28;20032;-71
2023/12/29 07:31:48;;;;;;;20.17;2.95;;;;;;;-146.27;87.08;32382.75;5068646;28;20190;-70
2023/12/29 07:34:14;;;;;;;19.05;2.58;;;;;;;-146.27;87.26;32351.03;5068408;28;20044;-70
2023/12/29 07:36:40;;;;;;;14.18;2.50;;;;;;;-146.27;86.95;32386.72;5062186;28;20453;-71
2023/12/29 07:39:07;;;;;;;13.95;2.53;;;;;;;-146.27;87.48;32398.63;5060477;28;20480;-71
2023/12/29 07:41:32;;;;;;;16.48;2.17;;;;;;;-146.27;87.51;32378.78;5058437;28;20469;-71
2023/12/29 07:43:58;;;;;;;19.13;2.53;;;;;;;-146.27;86.96;32325.25;5066451;28;20086;-72
2023/12/29 07:46:25;;;;;;;15.93;2.53;;;;;;;-146.27;86.21;32214.16;5067713;28;20036;-72
2023/12/29 07:48:50;;;;;;;10.68;1.58;;;;;;;-146.27;86.25;32323.25;5068150;28;20056;-72
2023/12/29 07:51:16;;;;;;;9.00;1.40;;;;;;;-146.27;85.99;32289.53;5068367;28;20107;-71
2023/12/29 07:53:41;;;;;;;10.40;2.10;;;;;;;-146.27;85.75;32364.91;5070165;28;20052;-72
2023/12/29 07:56:07;;;;;;;11.23;1.85;;;;;;;-146.27;86.26;32382.75;5067614;28;20044;-71
2023/12/29 07:58:32;;;;;;;12.23;1.77;;;;;;;-146.27;85.69;32382.75;5074404;28;20094;-71
2023/12/29 08:00:57;;;;;;;18.60;2.88;;;;;;;-146.27;85.04;32253.81;5075581;28;20451;-70
2023/12/29 08:03:23;;;;;;;10.52;1.92;;;;;;;-146.27;85.38;32331.19;5066988;28;20047;-71
2023/12/29 08:05:48;;;;;;;9.32;1.60;;;;;;;-146.27;85.42;32386.72;5061697;28;20372;-71
2023/12/29 08:08:14;;;;;;;9.05;1.65;;;;;;;-146.27;86.02;32394.66;5066932;28;20028;-71
2023/12/29 08:10:39;;;;;;;9.45;1.70;;;;;;;-146.27;85.35;32339.13;5065885;28;20028;-71
2023/12/29 08:13:07;;;;;;;13.95;1.85;;;;;;;-146.27;85.34;32327.22;5065512;28;20025;-71
2023/12/29 08:15:32;;;;;;;8.38;1.35;;;;;;;-146.27;85.04;32293.50;5067273;28;20025;-72
2023/12/29 08:17:58;;;;;;;10.80;2.17;;;;;;;-146.27;85.07;32319.28;5067641;28;20021;-70
2023/12/29 08:20:24;;;;;;;7.45;2.17;;;;;;;-146.27;86.08;32343.09;5068674;28;20036;-71
2023/12/29 08:22:49;;;;;;;10.13;2.28;;;;;;;-146.27;85.35;32331.19;5065756;28;20499;-72
2023/12/29 08:25:15;;;;;;;18.50;1.88;;;;;;;-146.27;84.28;32267.72;5063516;28;20021;-72
2023/12/29 08:27:41;;;;;;;5.95;1.30;;;;;;;-146.27;84.81;32337.13;5066593;28;20066;-70
2023/12/29 08:30:07;;;;;;;6.60;1.20;;;;;;;-146.27;85.03;32299.44;5068075;28;20090;-69
2023/12/29 08:32:33;;;;;;;12.60;2.22;;;;;;;-146.27;85.37;32293.50;5060032;28;20025;-70
2023/12/29 08:34:58;;;;;;;9.82;1.85;;;;;;;-146.27;85.15;32319.28;5065072;28;20419;-72
2023/12/29 08:37:24;;;;;;;9.05;1.60;;;;;;;-146.27;84.19;32136.78;5070347;28;20416;-73
2023/12/29 08:39:49;;;;;;;9.90;1.20;;;;;;;-146.27;86.06;32325.25;5067568;28;20420;-71
2023/12/29 08:42:15;;;;;;;7.70;1.30;;;;;;;-146.27;85.46;32210.19;5053936;28;20111;-71
2023/12/29 08:44:41;;;;;;;6.28;1.00;;;;;;;-146.27;86.95;32355.00;5059900;28;20024;-71
2023/12/29 08:47:09;;;;;;;6.10;1.52;;;;;;;-146.27;87.12;32394.66;5064425;28;20395;-71
2023/12/29 08:49:38;;;;;;;7.97;1.40;;;;;;;-146.27;86.84;32438.31;5071631;28;20027;-72
2023/12/29 08:52:04;;;;;;;5.68;2.05;;;;;;;-146.27;86.92;32390.69;5071153;28;20111;-71
2023/12/29 08:54:29;;;;;;;8.65;1.45;;;;;;;-146.27;87.43;32458.13;5070381;28;20119;-72
2023/12/29 08:56:54;;;;;;;9.13;1.92;;;;;;;-146.27;87.00;32406.56;5069106;28;20045;-71
2023/12/29 08:59:20;;;;;;;9.75;2.30;;;;;;;-146.27;85.92;32239.94;5071218;28;20024;-72
2023/12/29 09:01:45;;;;;;;4.07;1.23;;;;;;;-146.27;86.57;32358.97;5067601;28;20072;-72
2023/12/29 09:04:10;;;;;;;5.65;1.30;;;;;;;-146.27;87.04;32410.53;5069343;28;20115;-71
2023/12/29 09:06:36;;;;;;;11.07;1.15;;;;;;;-146.27;86.54;32426.41;5071485;28;20025;-71
2023/12/29 09:09:01;;;;;;;8.73;1.65;;;;;;;-146.27;85.94;32279.63;5056258;28;20025;-72
2023/12/29 09:11:26;;;;;;;15.25;2.17;;;;;;;-146.27;85.84;32313.34;5069633;28;20024;-72
2023/12/29 09:13:52;;;;;;;8.75;1.40;;;;;;;-146.27;86.09;32293.50;5072344;28;20531;-72
2023/12/29 09:16:18;;;;;;;7.63;1.63;;;;;;;-146.27;85.09;32164.56;5072294;28;20047;-72
2023/12/29 09:18:43;;;;;;;10.77;1.40;;;;;;;-146.27;84.34;32166.56;5072306;28;20078;-72
2023/12/29 09:21:08;;;;;;;12.75;1.75;;;;;;;-146.27;84.50;32172.50;5072560;28;20103;-72
2023/12/29 09:23:34;;;;;;;15.85;1.60;;;;;;;-146.27;84.48;32069.34;5068994;28;20036;-72
2023/12/29 09:25:59;;;;;;;11.25;2.08;;;;;;;-146.27;84.67;32132.84;5062841;28;20031;-72
2023/12/29 09:28:25;;;;;;;14.02;2.50;;;;;;;-146.27;84.02;32095.16;5049699;28;20523;-72
2023/12/29 09:30:50;;;;;;;16.63;1.55;;;;;;;-146.27;85.70;32307.38;5055019;28;20033;-72
2023/12/29 09:33:16;;;;;;;11.63;1.27;;;;;;;-146.27;85.52;32196.31;5063659;28;20103;-72
2023/12/29 09:35:41;;;;;;;7.60;1.70;;;;;;;-146.27;84.98;32184.41;5082077;28;20421;-71
2023/12/29 09:38:06;;;;;;;11.75;2.63;;;;;;;-146.27;84.84;32136.78;5077748;28;20024;-71
2023/12/29 09:40:32;;;;;;;12.45;1.73;;;;;;;-146.27;84.92;32174.47;5070670;28;20024;-71
2023/12/29 09:43:01;;;;;;;12.27;1.80;;;;;;;-146.27;85.00;32218.13;5055055;28;20021;-72
2023/12/29 09:45:27;;;;;;;14.43;2.20;;;;;;;-146.27;85.87;32370.84;5079921;28;20532;-71
2023/12/29 09:47:54;;;;;;;16.75;1.75;;;;;;;-146.27;85.67;32194.31;5071857;28;20021;-71
2023/12/29 09:50:21;;;;;;;9.23;1.88;;;;;;;-146.27;84.62;32136.78;5056473;28;20052;-71
2023/12/29 09:52:48;;;;;;;9.93;1.90;;;;;;;-146.27;85.21;32184.41;5062501;28;20032;-71
2023/12/29 09:55:14;;;;;;;14.00;2.25;;;;;;;-146.27;85.02;32208.22;5068507;28;20020;-71
2023/12/29 09:57:40;;;;;;;11.68;2.15;;;;;;;-146.27;84.59;32105.06;5070704;28;20052;-71
2023/12/29 10:00:10;;;;;;;10.10;1.60;;;;;;;-146.27;84.04;32053.50;5070902;28;20109;-72
2023/12/29 10:02:36;;;;;;;16.40;2.60;;;;;;;-146.27;83.53;32013.81;5065709;28;20031;-72
2023/12/29 10:05:03;;;;;;;17.60;2.15;;;;;;;-146.27;83.32;32023.75;5063997;28;20024;-71
2023/12/29 10:07:37;;;;;;;13.82;1.58;;;;;;;-146.27;84.30;32057.47;5088495;28;20028;-72
2023/12/29 10:10:04;;;;;;;14.02;1.55;;;;;;;-146.27;83.91;32063.41;5071806;28;20063;-71
2023/12/29 10:12:31;;;;;;;13.38;2.20;;;;;;;-146.27;84.78;32271.69;5073129;28;20024;-72
2023/12/29 10:15:14;;;;;;;6.35;1.50;;;;;;;-146.27;83.98;32144.72;5055679;28;20044;-71
2023/12/29 10:17:50;;;;;;;15.98;2.70;;;;;;;-146.27;84.69;32124.91;5085614;28;20043;-72
2023/12/29 10:20:18;;;;;;;14.68;2.03;;;;;;;-146.27;84.10;32124.91;5088881;28;20609;-72
2023/12/29 10:23:16;;;;;;;12.60;2.42;;;;;;;-146.27;83.79;32063.41;5074666;28;20076;-71
2023/12/29 10:25:42;;;;;;;14.15;2.25;;;;;;;-146.27;83.09;32085.22;5055609;28;20052;-70
2023/12/29 10:28:09;;;;;;;20.50;2.20;;;;;;;-146.27;82.71;31997.94;5061221;28;20029;-72
2023/12/29 10:30:35;;;;;;;22.55;3.38;;;;;;;-146.27;83.55;32176.47;5050967;28;20166;-73
2023/12/29 10:33:01;;;;;;;16.67;2.75;;;;;;;-146.27;82.69;32105.06;5063040;28;20059;-72
2023/12/29 10:35:27;;;;;;;13.55;2.13;;;;;;;-146.27;83.22;32156.63;5060951;28;20672;-72
2023/12/29 10:37:52;;;;;;;23.58;3.03;;;;;;;-146.27;82.56;32160.59;5052810;28;20071;-71
2023/12/29 10:40:18;;;;;;;27.35;2.88;;;;;;;-146.27;82.46;32140.75;5062025;28;20032;-72
2023/12/29 10:42:54;;;;;;;18.40;3.00;;;;;;;-146.27;81.99;32031.66;5070336;28;20031;-72
2023/12/29 10:45:20;;;;;;;26.17;3.17;;;;;;;-146.27;81.67;31964.22;5073833;28;20028;-72
2023/12/29 10:47:45;;;;;;;24.35;2.75;;;;;;;-146.27;81.91;32116.97;5066523;28;20036;-72
2023/12/29 10:50:11;;;;;;;23.67;2.83;;;;;;;-146.27;80.83;31934.47;5051171;28;20104;-72
2023/12/29 10:52:37;;;;;;;20.45;2.40;;;;;;;-146.27;81.38;32053.50;5052953;28;20608;-72
2023/12/29 10:55:11;;;;;;;16.92;2.38;;;;;;;-146.27;81.49;32095.16;5081205;28;20035;-71
2023/12/29 10:57:38;;;;;;;24.80;3.03;;;;;;;-146.27;80.75;32045.56;5072639;28;20508;-72
2023/12/29 11:00:06;;;;;;;27.48;3.70;;;;;;;-146.27;80.35;31974.16;5050738;28;20128;-71
2023/12/29 11:02:32;;;;;;;27.60;3.95;;;;;;;-146.27;80.03;31938.44;5064957;28;20024;-73
2023/12/29 11:05:08;;;;;;;22.50;2.75;;;;;;;-146.27;80.14;31926.56;5070265;28;20032;-72